sensor_id;sensor_type;location;lat;lon;timestamp;temperature;humidity
360;DHT22;168;48.872;9.226;2024-03-02T00:01:36;8.20;96.10
360;DHT22;168;48.872;9.226;2024-03-02T00:04:05;8.30;96.50
360;DHT22;168;48.872;9.226;2024-03-02T00:06:34;8.30;96.60
360;DHT22;168;48.872;9.226;2024-03-02T00:09:03;8.30;96.90
360;DHT22;168;48.872;9.226;2024-03-02T00:11:30;8.30;97.00
360;DHT22;168;48.872;9.226;2024-03-02T00:13:57;8.40;97.20
360;DHT22;168;48.872;9.226;2024-03-02T00:16:30;8.30;97.20
360;DHT22;168;48.872;9.226;2024-03-02T00:19:01;8.40;97.20
360;DHT22;168;48.872;9.226;2024-03-02T00:21:31;8.40;97.10
360;DHT22;168;48.872;9.226;2024-03-02T00:23:59;8.40;97.10
360;DHT22;168;48.872;9.226;2024-03-02T00:26:27;8.40;97.40
360;DHT22;168;48.872;9.226;2024-03-02T00:28:55;8.40;97.30
360;DHT22;168;48.872;9.226;2024-03-02T00:31:23;8.40;97.20
360;DHT22;168;48.872;9.226;2024-03-02T00:33:51;8.40;97.30
360;DHT22;168;48.872;9.226;2024-03-02T00:36:24;8.40;97.50
360;DHT22;168;48.872;9.226;2024-03-02T00:38:54;8.50;97.70
360;DHT22;168;48.872;9.226;2024-03-02T00:41:23;8.50;97.80
360;DHT22;168;48.872;9.226;2024-03-02T00:43:57;8.40;97.80
360;DHT22;168;48.872;9.226;2024-03-02T00:46:26;8.40;97.80
360;DHT22;168;48.872;9.226;2024-03-02T00:48:56;8.40;97.90
360;DHT22;168;48.872;9.226;2024-03-02T00:51:25;8.40;98.10
360;DHT22;168;48.872;9.226;2024-03-02T00:53:55;8.40;98.00
360;DHT22;168;48.872;9.226;2024-03-02T00:56:23;8.40;98.00
360;DHT22;168;48.872;9.226;2024-03-02T00:58:51;8.40;98.00
360;DHT22;168;48.872;9.226;2024-03-02T01:01:18;8.40;98.00
360;DHT22;168;48.872;9.226;2024-03-02T01:03:47;8.40;98.10
360;DHT22;168;48.872;9.226;2024-03-02T01:06:15;8.40;98.00
360;DHT22;168;48.872;9.226;2024-03-02T01:08:43;8.40;98.10
360;DHT22;168;48.872;9.226;2024-03-02T01:11:11;8.40;98.20
360;DHT22;168;48.872;9.226;2024-03-02T01:13:39;8.40;98.10
360;DHT22;168;48.872;9.226;2024-03-02T01:16:06;8.30;98.00
360;DHT22;168;48.872;9.226;2024-03-02T01:18:33;8.30;98.10
360;DHT22;168;48.872;9.226;2024-03-02T01:21:01;8.30;98.10
360;DHT22;168;48.872;9.226;2024-03-02T01:23:28;8.30;98.10
360;DHT22;168;48.872;9.226;2024-03-02T01:25:56;8.30;98.10
360;DHT22;168;48.872;9.226;2024-03-02T01:28:24;8.30;98.10
360;DHT22;168;48.872;9.226;2024-03-02T01:30:52;8.30;98.10
360;DHT22;168;48.872;9.226;2024-03-02T01:33:19;8.20;98.10
360;DHT22;168;48.872;9.226;2024-03-02T01:35:45;8.20;98.10
360;DHT22;168;48.872;9.226;2024-03-02T01:38:13;8.20;98.10
360;DHT22;168;48.872;9.226;2024-03-02T01:40:41;8.20;98.10
360;DHT22;168;48.872;9.226;2024-03-02T01:43:10;8.10;98.10
360;DHT22;168;48.872;9.226;2024-03-02T01:45:39;8.10;98.00
360;DHT22;168;48.872;9.226;2024-03-02T01:48:07;8.10;98.00
360;DHT22;168;48.872;9.226;2024-03-02T01:50:35;8.10;98.10
360;DHT22;168;48.872;9.226;2024-03-02T01:53:03;8.00;98.30
360;DHT22;168;48.872;9.226;2024-03-02T01:55:30;8.00;98.20
360;DHT22;168;48.872;9.226;2024-03-02T01:57:59;8.00;98.20
360;DHT22;168;48.872;9.226;2024-03-02T02:00:26;7.90;98.20
360;DHT22;168;48.872;9.226;2024-03-02T02:02:55;7.90;98.30
360;DHT22;168;48.872;9.226;2024-03-02T02:05:23;7.90;98.20
360;DHT22;168;48.872;9.226;2024-03-02T02:07:51;7.80;98.20
360;DHT22;168;48.872;9.226;2024-03-02T02:10:18;7.70;98.10
360;DHT22;168;48.872;9.226;2024-03-02T02:12:46;7.60;98.20
360;DHT22;168;48.872;9.226;2024-03-02T02:15:26;7.60;98.20
360;DHT22;168;48.872;9.226;2024-03-02T02:17:55;7.50;98.20
360;DHT22;168;48.872;9.226;2024-03-02T02:20:23;7.40;98.00
360;DHT22;168;48.872;9.226;2024-03-02T02:22:59;7.30;98.00
360;DHT22;168;48.872;9.226;2024-03-02T02:25:26;7.30;98.00
360;DHT22;168;48.872;9.226;2024-03-02T02:27:54;7.30;97.90
360;DHT22;168;48.872;9.226;2024-03-02T02:30:23;7.20;97.80
360;DHT22;168;48.872;9.226;2024-03-02T02:32:50;7.10;97.50
360;DHT22;168;48.872;9.226;2024-03-02T02:35:17;7.00;97.40
360;DHT22;168;48.872;9.226;2024-03-02T02:37:45;7.00;97.40
360;DHT22;168;48.872;9.226;2024-03-02T02:40:15;7.10;97.50
360;DHT22;168;48.872;9.226;2024-03-02T02:42:44;6.90;97.40
360;DHT22;168;48.872;9.226;2024-03-02T02:45:12;6.90;97.30
360;DHT22;168;48.872;9.226;2024-03-02T02:47:40;6.80;97.00
360;DHT22;168;48.872;9.226;2024-03-02T02:50:09;6.70;96.90
360;DHT22;168;48.872;9.226;2024-03-02T02:52:38;6.70;96.60
360;DHT22;168;48.872;9.226;2024-03-02T02:55:07;6.80;96.90
360;DHT22;168;48.872;9.226;2024-03-02T02:57:38;6.70;96.70
360;DHT22;168;48.872;9.226;2024-03-02T03:00:08;6.60;96.40
360;DHT22;168;48.872;9.226;2024-03-02T03:02:40;6.50;96.00
360;DHT22;168;48.872;9.226;2024-03-02T03:05:09;6.50;95.80
360;DHT22;168;48.872;9.226;2024-03-02T03:07:37;6.50;95.50
360;DHT22;168;48.872;9.226;2024-03-02T03:10:06;6.50;95.40
360;DHT22;168;48.872;9.226;2024-03-02T03:12:35;6.50;95.70
360;DHT22;168;48.872;9.226;2024-03-02T03:15:04;6.40;95.50
360;DHT22;168;48.872;9.226;2024-03-02T03:17:32;6.40;95.90
360;DHT22;168;48.872;9.226;2024-03-02T03:20:00;6.40;96.20
360;DHT22;168;48.872;9.226;2024-03-02T03:22:28;6.40;96.30
360;DHT22;168;48.872;9.226;2024-03-02T03:24:56;6.50;96.50
360;DHT22;168;48.872;9.226;2024-03-02T03:27:23;6.50;96.70
360;DHT22;168;48.872;9.226;2024-03-02T03:29:52;6.40;96.30
360;DHT22;168;48.872;9.226;2024-03-02T03:32:20;6.30;96.00
360;DHT22;168;48.872;9.226;2024-03-02T03:34:47;6.30;96.10
360;DHT22;168;48.872;9.226;2024-03-02T03:37:15;6.30;96.10
360;DHT22;168;48.872;9.226;2024-03-02T03:39:42;6.20;95.90
360;DHT22;168;48.872;9.226;2024-03-02T03:42:09;6.20;95.50
360;DHT22;168;48.872;9.226;2024-03-02T03:44:37;6.20;95.40
360;DHT22;168;48.872;9.226;2024-03-02T03:47:06;6.20;95.20
360;DHT22;168;48.872;9.226;2024-03-02T03:49:34;6.20;95.50
360;DHT22;168;48.872;9.226;2024-03-02T03:52:01;6.30;96.00
360;DHT22;168;48.872;9.226;2024-03-02T03:54:30;6.20;96.10
360;DHT22;168;48.872;9.226;2024-03-02T03:56:57;6.20;96.20
360;DHT22;168;48.872;9.226;2024-03-02T03:59:24;6.20;96.40
360;DHT22;168;48.872;9.226;2024-03-02T04:01:51;6.20;96.40
360;DHT22;168;48.872;9.226;2024-03-02T04:04:20;6.10;96.40
360;DHT22;168;48.872;9.226;2024-03-02T04:06:48;6.10;96.30
360;DHT22;168;48.872;9.226;2024-03-02T04:09:15;6.10;95.90
360;DHT22;168;48.872;9.226;2024-03-02T04:11:43;6.00;95.50
360;DHT22;168;48.872;9.226;2024-03-02T04:14:10;6.00;95.50
360;DHT22;168;48.872;9.226;2024-03-02T04:16:38;6.00;95.50
360;DHT22;168;48.872;9.226;2024-03-02T04:19:06;5.90;95.30
360;DHT22;168;48.872;9.226;2024-03-02T04:21:34;6.00;95.50
360;DHT22;168;48.872;9.226;2024-03-02T04:24:02;5.90;95.30
360;DHT22;168;48.872;9.226;2024-03-02T04:26:29;6.00;95.60
360;DHT22;168;48.872;9.226;2024-03-02T04:28:57;6.00;95.70
360;DHT22;168;48.872;9.226;2024-03-02T04:31:24;5.90;95.60
360;DHT22;168;48.872;9.226;2024-03-02T04:33:51;5.90;95.60
360;DHT22;168;48.872;9.226;2024-03-02T04:36:19;5.80;95.00
360;DHT22;168;48.872;9.226;2024-03-02T04:38:48;5.80;94.80
360;DHT22;168;48.872;9.226;2024-03-02T04:41:16;5.80;94.60
360;DHT22;168;48.872;9.226;2024-03-02T04:43:43;5.80;94.80
360;DHT22;168;48.872;9.226;2024-03-02T04:46:10;5.80;95.00
360;DHT22;168;48.872;9.226;2024-03-02T04:48:38;5.80;95.00
360;DHT22;168;48.872;9.226;2024-03-02T04:51:05;5.80;94.90
360;DHT22;168;48.872;9.226;2024-03-02T04:53:32;5.70;95.10
360;DHT22;168;48.872;9.226;2024-03-02T04:56:01;5.70;95.30
360;DHT22;168;48.872;9.226;2024-03-02T04:59:05;5.70;95.30
360;DHT22;168;48.872;9.226;2024-03-02T05:01:32;5.80;95.60
360;DHT22;168;48.872;9.226;2024-03-02T05:04:02;5.80;95.40
360;DHT22;168;48.872;9.226;2024-03-02T05:06:30;5.80;95.60
360;DHT22;168;48.872;9.226;2024-03-02T05:08:57;5.90;95.50
360;DHT22;168;48.872;9.226;2024-03-02T05:11:26;5.90;96.00
360;DHT22;168;48.872;9.226;2024-03-02T05:14:05;5.90;96.00
360;DHT22;168;48.872;9.226;2024-03-02T05:16:33;5.80;95.40
360;DHT22;168;48.872;9.226;2024-03-02T05:19:00;5.70;95.40
360;DHT22;168;48.872;9.226;2024-03-02T05:21:27;5.70;95.60
360;DHT22;168;48.872;9.226;2024-03-02T05:23:55;5.70;95.50
360;DHT22;168;48.872;9.226;2024-03-02T05:26:22;5.60;95.20
360;DHT22;168;48.872;9.226;2024-03-02T05:28:51;5.60;95.10
360;DHT22;168;48.872;9.226;2024-03-02T05:31:19;5.50;94.40
360;DHT22;168;48.872;9.226;2024-03-02T05:33:46;5.60;94.50
360;DHT22;168;48.872;9.226;2024-03-02T05:36:13;5.50;94.20
360;DHT22;168;48.872;9.226;2024-03-02T05:38:41;5.50;94.60
360;DHT22;168;48.872;9.226;2024-03-02T05:41:08;5.40;94.10
360;DHT22;168;48.872;9.226;2024-03-02T05:43:36;5.40;94.10
360;DHT22;168;48.872;9.226;2024-03-02T05:46:05;5.40;94.30
360;DHT22;168;48.872;9.226;2024-03-02T05:48:32;5.40;94.30
360;DHT22;168;48.872;9.226;2024-03-02T05:50:59;5.40;94.50
360;DHT22;168;48.872;9.226;2024-03-02T05:53:27;5.40;94.80
360;DHT22;168;48.872;9.226;2024-03-02T05:55:54;5.40;94.70
360;DHT22;168;48.872;9.226;2024-03-02T05:58:22;5.40;94.80
360;DHT22;168;48.872;9.226;2024-03-02T06:00:59;5.40;94.80
360;DHT22;168;48.872;9.226;2024-03-02T06:03:28;5.40;94.80
360;DHT22;168;48.872;9.226;2024-03-02T06:05:55;5.30;94.60
360;DHT22;168;48.872;9.226;2024-03-02T06:08:22;5.30;94.40
360;DHT22;168;48.872;9.226;2024-03-02T06:10:50;5.40;94.10
360;DHT22;168;48.872;9.226;2024-03-02T06:13:20;5.40;94.00
360;DHT22;168;48.872;9.226;2024-03-02T06:15:47;5.40;93.80
360;DHT22;168;48.872;9.226;2024-03-02T06:18:14;5.40;93.20
360;DHT22;168;48.872;9.226;2024-03-02T06:20:43;5.40;93.10
360;DHT22;168;48.872;9.226;2024-03-02T06:23:11;5.40;92.60
360;DHT22;168;48.872;9.226;2024-03-02T06:25:38;5.50;92.40
360;DHT22;168;48.872;9.226;2024-03-02T06:28:05;5.50;92.90
360;DHT22;168;48.872;9.226;2024-03-02T06:30:33;5.50;93.70
360;DHT22;168;48.872;9.226;2024-03-02T06:33:00;5.60;94.30
360;DHT22;168;48.872;9.226;2024-03-02T06:35:29;5.60;94.00
360;DHT22;168;48.872;9.226;2024-03-02T06:37:58;5.70;94.00
360;DHT22;168;48.872;9.226;2024-03-02T06:40:27;5.80;94.20
360;DHT22;168;48.872;9.226;2024-03-02T06:42:54;5.80;94.10
360;DHT22;168;48.872;9.226;2024-03-02T06:45:22;5.90;94.10
360;DHT22;168;48.872;9.226;2024-03-02T06:47:49;6.00;94.40
360;DHT22;168;48.872;9.226;2024-03-02T06:50:16;6.10;94.60
360;DHT22;168;48.872;9.226;2024-03-02T06:52:43;6.10;94.50
360;DHT22;168;48.872;9.226;2024-03-02T06:55:12;6.20;94.60
360;DHT22;168;48.872;9.226;2024-03-02T06:57:39;6.30;94.70
360;DHT22;168;48.872;9.226;2024-03-02T07:00:07;6.40;95.00
360;DHT22;168;48.872;9.226;2024-03-02T07:02:35;6.60;95.50
360;DHT22;168;48.872;9.226;2024-03-02T07:05:03;6.70;96.10
360;DHT22;168;48.872;9.226;2024-03-02T07:07:31;6.80;96.20
360;DHT22;168;48.872;9.226;2024-03-02T07:09:58;6.90;96.40
360;DHT22;168;48.872;9.226;2024-03-02T07:12:26;7.00;96.30
360;DHT22;168;48.872;9.226;2024-03-02T07:14:54;7.00;96.10
360;DHT22;168;48.872;9.226;2024-03-02T07:17:37;7.10;96.50
360;DHT22;168;48.872;9.226;2024-03-02T07:20:05;7.30;97.10
360;DHT22;168;48.872;9.226;2024-03-02T07:22:33;7.40;97.30
360;DHT22;168;48.872;9.226;2024-03-02T07:25:00;7.60;97.50
360;DHT22;168;48.872;9.226;2024-03-02T07:27:31;7.70;97.50
360;DHT22;168;48.872;9.226;2024-03-02T07:29:58;7.80;97.70
360;DHT22;168;48.872;9.226;2024-03-02T07:32:25;7.90;97.80
360;DHT22;168;48.872;9.226;2024-03-02T07:34:53;8.00;98.10
360;DHT22;168;48.872;9.226;2024-03-02T07:37:20;8.10;98.00
360;DHT22;168;48.872;9.226;2024-03-02T07:39:47;8.30;98.20
360;DHT22;168;48.872;9.226;2024-03-02T07:42:15;8.40;98.10
360;DHT22;168;48.872;9.226;2024-03-02T07:44:44;8.50;98.20
360;DHT22;168;48.872;9.226;2024-03-02T07:47:11;8.60;98.10
360;DHT22;168;48.872;9.226;2024-03-02T07:49:38;8.70;98.10
360;DHT22;168;48.872;9.226;2024-03-02T07:52:06;8.80;98.10
360;DHT22;168;48.872;9.226;2024-03-02T07:54:33;8.90;98.20
360;DHT22;168;48.872;9.226;2024-03-02T07:57:01;9.00;98.10
360;DHT22;168;48.872;9.226;2024-03-02T07:59:28;9.00;98.10
360;DHT22;168;48.872;9.226;2024-03-02T08:01:57;9.00;97.90
360;DHT22;168;48.872;9.226;2024-03-02T08:04:25;9.00;97.90
360;DHT22;168;48.872;9.226;2024-03-02T08:06:52;9.00;97.90
360;DHT22;168;48.872;9.226;2024-03-02T08:09:20;9.10;97.90
360;DHT22;168;48.872;9.226;2024-03-02T08:11:48;9.10;97.90
360;DHT22;168;48.872;9.226;2024-03-02T08:14:15;9.10;97.90
360;DHT22;168;48.872;9.226;2024-03-02T08:16:42;9.10;97.70
360;DHT22;168;48.872;9.226;2024-03-02T08:19:11;9.10;97.70
360;DHT22;168;48.872;9.226;2024-03-02T08:21:38;9.10;97.70
360;DHT22;168;48.872;9.226;2024-03-02T08:24:06;9.20;97.30
360;DHT22;168;48.872;9.226;2024-03-02T08:26:34;9.20;97.20
360;DHT22;168;48.872;9.226;2024-03-02T08:29:01;9.10;97.50
360;DHT22;168;48.872;9.226;2024-03-02T08:31:29;9.10;97.40
360;DHT22;168;48.872;9.226;2024-03-02T08:33:56;9.10;97.50
360;DHT22;168;48.872;9.226;2024-03-02T08:36:26;9.10;97.50
360;DHT22;168;48.872;9.226;2024-03-02T08:38:53;9.20;97.40
360;DHT22;168;48.872;9.226;2024-03-02T08:41:20;9.20;97.30
360;DHT22;168;48.872;9.226;2024-03-02T08:43:48;9.10;97.70
360;DHT22;168;48.872;9.226;2024-03-02T08:46:15;9.20;97.90
360;DHT22;168;48.872;9.226;2024-03-02T08:48:43;9.20;97.90
360;DHT22;168;48.872;9.226;2024-03-02T08:51:10;9.30;98.00
360;DHT22;168;48.872;9.226;2024-03-02T08:53:39;9.40;97.90
360;DHT22;168;48.872;9.226;2024-03-02T08:56:06;9.50;98.00
360;DHT22;168;48.872;9.226;2024-03-02T08:58:33;9.70;97.80
360;DHT22;168;48.872;9.226;2024-03-02T09:01:01;9.90;98.00
360;DHT22;168;48.872;9.226;2024-03-02T09:03:28;10.10;97.30
360;DHT22;168;48.872;9.226;2024-03-02T09:05:56;10.20;97.30
360;DHT22;168;48.872;9.226;2024-03-02T09:08:23;10.40;97.20
360;DHT22;168;48.872;9.226;2024-03-02T09:10:52;10.60;96.80
360;DHT22;168;48.872;9.226;2024-03-02T09:13:20;10.70;96.10
360;DHT22;168;48.872;9.226;2024-03-02T09:15:48;11.00;95.10
360;DHT22;168;48.872;9.226;2024-03-02T09:18:15;11.10;94.70
360;DHT22;168;48.872;9.226;2024-03-02T09:20:42;11.20;93.80
360;DHT22;168;48.872;9.226;2024-03-02T09:23:10;11.50;91.60
360;DHT22;168;48.872;9.226;2024-03-02T09:25:37;11.50;92.30
360;DHT22;168;48.872;9.226;2024-03-02T09:28:06;11.60;91.00
360;DHT22;168;48.872;9.226;2024-03-02T09:30:33;11.60;91.00
360;DHT22;168;48.872;9.226;2024-03-02T09:33:00;11.80;90.60
360;DHT22;168;48.872;9.226;2024-03-02T09:35:28;11.80;88.20
360;DHT22;168;48.872;9.226;2024-03-02T09:37:55;11.90;88.70
360;DHT22;168;48.872;9.226;2024-03-02T09:40:23;12.10;88.70
360;DHT22;168;48.872;9.226;2024-03-02T09:42:50;12.30;86.50
360;DHT22;168;48.872;9.226;2024-03-02T09:45:23;12.50;85.60
360;DHT22;168;48.872;9.226;2024-03-02T09:47:51;12.60;84.40
360;DHT22;168;48.872;9.226;2024-03-02T09:50:18;12.70;83.10
360;DHT22;168;48.872;9.226;2024-03-02T09:52:48;12.70;83.00
360;DHT22;168;48.872;9.226;2024-03-02T09:55:16;12.90;82.40
360;DHT22;168;48.872;9.226;2024-03-02T09:57:45;13.00;80.80
360;DHT22;168;48.872;9.226;2024-03-02T10:00:15;13.10;81.00
360;DHT22;168;48.872;9.226;2024-03-02T10:02:43;13.10;80.50
360;DHT22;168;48.872;9.226;2024-03-02T10:05:12;13.20;80.40
360;DHT22;168;48.872;9.226;2024-03-02T10:07:39;13.20;80.90
360;DHT22;168;48.872;9.226;2024-03-02T10:10:13;13.40;78.80
360;DHT22;168;48.872;9.226;2024-03-02T10:12:41;13.50;78.70
360;DHT22;168;48.872;9.226;2024-03-02T10:15:08;13.50;78.20
360;DHT22;168;48.872;9.226;2024-03-02T10:17:36;13.70;78.10
360;DHT22;168;48.872;9.226;2024-03-02T10:20:25;13.70;79.50
360;DHT22;168;48.872;9.226;2024-03-02T10:22:54;13.90;78.20
360;DHT22;168;48.872;9.226;2024-03-02T10:25:32;14.10;76.10
360;DHT22;168;48.872;9.226;2024-03-02T10:28:00;14.30;75.40
360;DHT22;168;48.872;9.226;2024-03-02T10:30:28;14.30;76.00
360;DHT22;168;48.872;9.226;2024-03-02T10:32:55;14.40;74.70
360;DHT22;168;48.872;9.226;2024-03-02T10:35:24;14.50;73.60
360;DHT22;168;48.872;9.226;2024-03-02T10:37:52;14.60;74.40
360;DHT22;168;48.872;9.226;2024-03-02T10:40:22;14.80;75.10
360;DHT22;168;48.872;9.226;2024-03-02T10:42:50;14.90;74.60
360;DHT22;168;48.872;9.226;2024-03-02T10:45:19;14.90;75.60
360;DHT22;168;48.872;9.226;2024-03-02T10:47:48;15.10;75.30
360;DHT22;168;48.872;9.226;2024-03-02T10:50:16;15.20;73.70
360;DHT22;168;48.872;9.226;2024-03-02T10:52:45;15.30;72.40
360;DHT22;168;48.872;9.226;2024-03-02T10:55:13;15.40;72.70
360;DHT22;168;48.872;9.226;2024-03-02T10:57:42;15.40;73.20
360;DHT22;168;48.872;9.226;2024-03-02T11:00:13;15.40;73.40
360;DHT22;168;48.872;9.226;2024-03-02T11:02:50;15.60;71.00
360;DHT22;168;48.872;9.226;2024-03-02T11:05:26;15.70;69.30
360;DHT22;168;48.872;9.226;2024-03-02T11:07:59;15.60;70.10
360;DHT22;168;48.872;9.226;2024-03-02T11:10:33;15.70;72.10
360;DHT22;168;48.872;9.226;2024-03-02T11:13:05;15.80;70.70
360;DHT22;168;48.872;9.226;2024-03-02T11:15:34;15.90;70.60
360;DHT22;168;48.872;9.226;2024-03-02T11:18:04;16.00;70.60
360;DHT22;168;48.872;9.226;2024-03-02T11:20:36;16.10;70.70
360;DHT22;168;48.872;9.226;2024-03-02T11:23:07;16.20;70.60
360;DHT22;168;48.872;9.226;2024-03-02T11:25:35;16.30;69.20
360;DHT22;168;48.872;9.226;2024-03-02T11:28:05;16.40;68.70
360;DHT22;168;48.872;9.226;2024-03-02T11:30:49;16.40;68.10
360;DHT22;168;48.872;9.226;2024-03-02T11:33:25;16.40;69.10
360;DHT22;168;48.872;9.226;2024-03-02T11:35:56;16.50;67.80
360;DHT22;168;48.872;9.226;2024-03-02T11:38:30;16.60;66.40
360;DHT22;168;48.872;9.226;2024-03-02T11:41:00;16.70;66.20
360;DHT22;168;48.872;9.226;2024-03-02T11:43:28;16.60;67.40
360;DHT22;168;48.872;9.226;2024-03-02T11:45:59;16.60;66.80
360;DHT22;168;48.872;9.226;2024-03-02T11:48:30;16.60;66.60
360;DHT22;168;48.872;9.226;2024-03-02T11:50:58;16.60;67.10
360;DHT22;168;48.872;9.226;2024-03-02T11:53:28;16.70;66.20
360;DHT22;168;48.872;9.226;2024-03-02T11:55:58;16.80;66.90
360;DHT22;168;48.872;9.226;2024-03-02T11:58:27;16.80;68.20
360;DHT22;168;48.872;9.226;2024-03-02T12:00:56;16.90;67.70
360;DHT22;168;48.872;9.226;2024-03-02T12:03:25;17.00;67.00
360;DHT22;168;48.872;9.226;2024-03-02T12:05:53;17.10;68.00
360;DHT22;168;48.872;9.226;2024-03-02T12:08:21;17.20;68.30
360;DHT22;168;48.872;9.226;2024-03-02T12:11:01;17.40;66.90
360;DHT22;168;48.872;9.226;2024-03-02T12:13:28;17.40;65.60
360;DHT22;168;48.872;9.226;2024-03-02T12:15:56;17.50;66.30
360;DHT22;168;48.872;9.226;2024-03-02T12:18:24;17.60;65.80
360;DHT22;168;48.872;9.226;2024-03-02T12:20:52;17.70;64.50
360;DHT22;168;48.872;9.226;2024-03-02T12:23:23;17.70;64.10
360;DHT22;168;48.872;9.226;2024-03-02T12:25:50;17.70;63.80
360;DHT22;168;48.872;9.226;2024-03-02T12:28:19;17.80;64.70
360;DHT22;168;48.872;9.226;2024-03-02T12:30:47;17.80;65.20
360;DHT22;168;48.872;9.226;2024-03-02T12:33:16;17.90;64.20
360;DHT22;168;48.872;9.226;2024-03-02T12:35:44;18.00;64.10
360;DHT22;168;48.872;9.226;2024-03-02T12:38:11;18.10;62.50
360;DHT22;168;48.872;9.226;2024-03-02T12:40:39;18.20;62.20
360;DHT22;168;48.872;9.226;2024-03-02T12:43:06;18.20;62.80
360;DHT22;168;48.872;9.226;2024-03-02T12:45:35;18.20;62.80
360;DHT22;168;48.872;9.226;2024-03-02T12:48:04;18.30;61.40
360;DHT22;168;48.872;9.226;2024-03-02T12:50:33;18.20;62.10
360;DHT22;168;48.872;9.226;2024-03-02T12:53:00;18.20;62.20
360;DHT22;168;48.872;9.226;2024-03-02T12:55:28;18.10;63.30
360;DHT22;168;48.872;9.226;2024-03-02T12:57:55;18.10;62.20
360;DHT22;168;48.872;9.226;2024-03-02T13:00:23;18.20;62.50
360;DHT22;168;48.872;9.226;2024-03-02T13:02:51;18.20;62.40
360;DHT22;168;48.872;9.226;2024-03-02T13:05:19;18.20;62.80
360;DHT22;168;48.872;9.226;2024-03-02T13:07:47;18.30;61.90
360;DHT22;168;48.872;9.226;2024-03-02T13:10:15;18.40;62.10
360;DHT22;168;48.872;9.226;2024-03-02T13:12:42;18.40;60.80
360;DHT22;168;48.872;9.226;2024-03-02T13:15:10;18.30;61.60
360;DHT22;168;48.872;9.226;2024-03-02T13:17:38;18.40;60.10
360;DHT22;168;48.872;9.226;2024-03-02T13:20:08;18.40;59.70
360;DHT22;168;48.872;9.226;2024-03-02T13:22:36;18.30;60.20
360;DHT22;168;48.872;9.226;2024-03-02T13:25:04;18.10;62.40
360;DHT22;168;48.872;9.226;2024-03-02T13:27:32;18.10;61.10
360;DHT22;168;48.872;9.226;2024-03-02T13:29:59;18.20;60.90
360;DHT22;168;48.872;9.226;2024-03-02T13:32:26;18.20;62.60
360;DHT22;168;48.872;9.226;2024-03-02T13:34:54;18.20;63.60
360;DHT22;168;48.872;9.226;2024-03-02T13:37:23;18.20;63.30
360;DHT22;168;48.872;9.226;2024-03-02T13:39:50;18.20;61.60
360;DHT22;168;48.872;9.226;2024-03-02T13:42:18;18.20;60.90
360;DHT22;168;48.872;9.226;2024-03-02T13:44:45;18.10;60.70
360;DHT22;168;48.872;9.226;2024-03-02T13:47:14;18.10;61.50
360;DHT22;168;48.872;9.226;2024-03-02T13:49:41;18.10;62.40
360;DHT22;168;48.872;9.226;2024-03-02T13:52:11;18.10;60.70
360;DHT22;168;48.872;9.226;2024-03-02T13:54:41;18.10;60.30
360;DHT22;168;48.872;9.226;2024-03-02T13:57:09;18.10;61.10
360;DHT22;168;48.872;9.226;2024-03-02T13:59:39;18.10;60.70
360;DHT22;168;48.872;9.226;2024-03-02T14:02:07;18.10;61.60
360;DHT22;168;48.872;9.226;2024-03-02T14:04:35;18.10;61.00
360;DHT22;168;48.872;9.226;2024-03-02T14:07:03;18.10;61.00
360;DHT22;168;48.872;9.226;2024-03-02T14:09:34;18.30;60.50
360;DHT22;168;48.872;9.226;2024-03-02T14:12:04;18.30;60.50
360;DHT22;168;48.872;9.226;2024-03-02T14:14:32;18.30;59.30
360;DHT22;168;48.872;9.226;2024-03-02T14:16:59;18.30;58.60
360;DHT22;168;48.872;9.226;2024-03-02T14:19:30;18.30;59.20
360;DHT22;168;48.872;9.226;2024-03-02T14:21:58;18.30;60.20
360;DHT22;168;48.872;9.226;2024-03-02T14:24:25;18.40;59.10
360;DHT22;168;48.872;9.226;2024-03-02T14:26:54;18.50;58.90
360;DHT22;168;48.872;9.226;2024-03-02T14:29:24;18.60;59.10
360;DHT22;168;48.872;9.226;2024-03-02T14:31:52;18.70;58.80
360;DHT22;168;48.872;9.226;2024-03-02T14:34:19;18.70;58.90
360;DHT22;168;48.872;9.226;2024-03-02T14:36:46;18.80;59.50
360;DHT22;168;48.872;9.226;2024-03-02T14:39:14;18.90;59.60
360;DHT22;168;48.872;9.226;2024-03-02T14:41:41;19.00;59.80
360;DHT22;168;48.872;9.226;2024-03-02T14:44:08;19.00;59.40
360;DHT22;168;48.872;9.226;2024-03-02T14:46:37;19.00;57.90
360;DHT22;168;48.872;9.226;2024-03-02T14:49:05;19.10;57.60
360;DHT22;168;48.872;9.226;2024-03-02T14:51:32;19.20;58.60
360;DHT22;168;48.872;9.226;2024-03-02T14:54:00;19.20;57.90
360;DHT22;168;48.872;9.226;2024-03-02T14:56:27;19.30;56.70
360;DHT22;168;48.872;9.226;2024-03-02T14:58:55;19.30;56.60
360;DHT22;168;48.872;9.226;2024-03-02T15:01:22;19.30;56.80
360;DHT22;168;48.872;9.226;2024-03-02T15:03:52;19.30;56.30
360;DHT22;168;48.872;9.226;2024-03-02T15:06:19;19.20;57.70
360;DHT22;168;48.872;9.226;2024-03-02T15:08:47;19.20;57.30
360;DHT22;168;48.872;9.226;2024-03-02T15:11:14;19.20;56.80
360;DHT22;168;48.872;9.226;2024-03-02T15:13:42;19.20;56.70
360;DHT22;168;48.872;9.226;2024-03-02T15:16:09;19.30;55.40
360;DHT22;168;48.872;9.226;2024-03-02T15:18:37;19.40;55.70
360;DHT22;168;48.872;9.226;2024-03-02T15:21:06;19.40;55.50
360;DHT22;168;48.872;9.226;2024-03-02T15:23:33;19.30;55.30
360;DHT22;168;48.872;9.226;2024-03-02T15:26:00;19.20;54.60
360;DHT22;168;48.872;9.226;2024-03-02T15:28:28;19.20;54.80
360;DHT22;168;48.872;9.226;2024-03-02T15:30:55;19.10;55.00
360;DHT22;168;48.872;9.226;2024-03-02T15:33:22;19.00;54.80
360;DHT22;168;48.872;9.226;2024-03-02T15:35:51;18.90;55.20
360;DHT22;168;48.872;9.226;2024-03-02T15:38:20;18.70;56.00
360;DHT22;168;48.872;9.226;2024-03-02T15:40:47;18.70;56.70
360;DHT22;168;48.872;9.226;2024-03-02T15:43:15;18.50;57.30
360;DHT22;168;48.872;9.226;2024-03-02T15:45:42;18.40;58.20
360;DHT22;168;48.872;9.226;2024-03-02T15:48:10;18.10;58.80
360;DHT22;168;48.872;9.226;2024-03-02T15:50:37;18.00;59.40
360;DHT22;168;48.872;9.226;2024-03-02T15:53:04;17.80;60.00
360;DHT22;168;48.872;9.226;2024-03-02T15:55:33;17.70;59.80
360;DHT22;168;48.872;9.226;2024-03-02T15:58:01;17.60;60.40
360;DHT22;168;48.872;9.226;2024-03-02T16:00:31;17.50;60.50
360;DHT22;168;48.872;9.226;2024-03-02T16:02:58;17.40;60.70
360;DHT22;168;48.872;9.226;2024-03-02T16:05:26;17.20;61.00
360;DHT22;168;48.872;9.226;2024-03-02T16:07:53;17.20;61.30
360;DHT22;168;48.872;9.226;2024-03-02T16:10:20;16.90;62.00
360;DHT22;168;48.872;9.226;2024-03-02T16:12:49;16.80;62.10
360;DHT22;168;48.872;9.226;2024-03-02T16:15:17;16.70;61.70
360;DHT22;168;48.872;9.226;2024-03-02T16:17:45;16.50;62.30
360;DHT22;168;48.872;9.226;2024-03-02T16:20:12;16.40;62.90
360;DHT22;168;48.872;9.226;2024-03-02T16:22:39;16.20;63.70
360;DHT22;168;48.872;9.226;2024-03-02T16:25:07;16.10;63.90
360;DHT22;168;48.872;9.226;2024-03-02T16:27:35;16.10;64.50
360;DHT22;168;48.872;9.226;2024-03-02T16:30:04;16.00;64.70
360;DHT22;168;48.872;9.226;2024-03-02T16:32:32;16.00;65.10
360;DHT22;168;48.872;9.226;2024-03-02T16:34:59;16.00;64.80
360;DHT22;168;48.872;9.226;2024-03-02T16:37:27;15.90;64.90
360;DHT22;168;48.872;9.226;2024-03-02T16:39:54;15.80;65.20
360;DHT22;168;48.872;9.226;2024-03-02T16:42:22;15.70;65.40
360;DHT22;168;48.872;9.226;2024-03-02T16:44:50;15.60;65.50
360;DHT22;168;48.872;9.226;2024-03-02T16:47:22;15.50;66.10
360;DHT22;168;48.872;9.226;2024-03-02T16:49:49;15.30;66.90
360;DHT22;168;48.872;9.226;2024-03-02T16:52:17;15.20;67.90